This is the latest recevied weather packets stored in our database for station/object KJ5FA-9. If no packets are shown the sender has not sent any weather packets the latest 10 day(s).
| Time | Temp. | Humidity | Pressure | Rain* | Wind** | Luminosity | Snow |
|---|---|---|---|---|---|---|---|
| 1787931628 | 28.33° C | 59% | 1020.4 hPa | 0 mm | - | - | - |
| 1787930128 | 28.33° C | 60% | 1020.2 hPa | 0 mm | - | - | - |
| 1787928628 | 26.67° C | 65% | 1020.2 hPa | 0 mm | - | - | - |
| 1787927128 | 26.11° C | 69% | 1020 hPa | 0 mm | - | - | - |
| 1787925628 | 25.56° C | 69% | 1019.6 hPa | 0 mm | - | - | - |
| 1787924130 | 25° C | 74% | 1019.9 hPa | 0 mm | - | - | - |
| 1787922628 | 23.89° C | 77% | 1019.5 hPa | 0 mm | - | - | - |
| 1787921127 | 22.78° C | 88% | 1019.3 hPa | 0 mm | - | - | - |
| 1787919629 | 21.67° C | 92% | 1019.3 hPa | 0 mm | - | - | - |
| 1787918132 | 21.67° C | 92% | 1019 hPa | 0 mm | - | - | - |
| 1787916627 | 22.22° C | 92% | 1019 hPa | 0 mm | - | - | - |
| 1787915129 | 22.22° C | 91% | 1018.8 hPa | 0 mm | - | - | - |
| 1787913627 | 22.78° C | 91% | 1018.6 hPa | 0 mm | - | - | - |
| 1787912127 | 22.78° C | 90% | 1018.6 hPa | 0 mm | - | - | - |
| 1787910627 | 23.33° C | 89% | 1018.5 hPa | 0 mm | - | - | - |
| 1787909132 | 23.33° C | 87% | 1018.4 hPa | 0 mm | - | - | - |
| 1787907627 | 23.33° C | 87% | 1018.2 hPa | 0 mm | - | - | - |
| 1787906127 | 23.89° C | 86% | 1018.3 hPa | 0 mm | - | - | - |
| 1787904627 | 23.89° C | 85% | 1018.4 hPa | 0 mm | - | - | - |
| 1787903127 | 24.44° C | 85% | 1018.5 hPa | 0 mm | - | - | - |
| 1787901627 | 24.44° C | 84% | 1017.8 hPa | 0 mm | - | - | - |
| 1787900127 | 25° C | 84% | 1018.3 hPa | 0 mm | - | - | - |
| 1787898627 | 25.56° C | 81% | 1018.2 hPa | 0 mm | - | - | - |
| 1787897133 | 25° C | 84% | 1018.2 hPa | 0 mm | - | - | - |
| 1787895627 | 25° C | 85% | 1017.5 hPa | 0 mm | - | - | - |
* Rain latest hour (hover to see other rain measurements)
** Current wind speed in m/s (hover to see current wind gust speed)